Portada
METAR-TAF:

METAR-TAF

Aeroports :

Aeroport de Kirkenes-Hoybuktmon

Kirkenes, Noruega

latitud: 69-44N, longitud: 029-54E, altitud: 9 m

Observació

L'informe es va fer fa 20 minuts, a les 00:50 UTC
Vent 12 kt del Oest/Nord-Oest
Temperatura -9°C
Humitat 79%
Pressió 1010 hPa
Visibilitat 10 km o més
sense núvols per sota de 1500 mi sense presència de cumulonimbus.

METAR: ENKR 300050Z 29012KT CAVOK M09/M12 Q1010 RMK WIND 731FT 28020KT

Hora: 03:10 (01:10 UTC)

Pronòstic

L'informe es va fer fa 2 hores i 10 minuts, a les 23:00 UTC
Pronòstic vàlid del 30 a les 00 UTC al 30 a les 09 UTC
Vent 12 kt del Oest
Visibilitat 10 km o més
Escasses núvols a una alçada de 3000 ft

TAF: ENKR 292300Z 3000/3009 28012KT 9999 FEW030

Observacions i pronòstics meteorològics de més de 4000 aeroports (METAR i TAF).

Les estacions disponibles són els punts grocs i vermells al mapa.

Posi el ratolí al punt desitjat per veure el nom de l'estació.

Feu clic per veure les observacions i els pronòstics meteorològics.

Per canviar el mapa: feu clic els botons verds amb una creu de color negre per apropar; al botó verd amb un guió per allunyar la imatge; o en les fletxes verdes per a mapes adjacents.


METAR-TAF: